メインページ
METAR-TAF:

METAR-TAF

空港 :

ラアス・アル=ハイマ国際空港

ラアス・アル=ハイマ, アラブ首長国連邦

緯度: 25-37N, 経度: 055-56E, 海抜: 31m

現時点の気象観測

当レポートは41分前の18:00(UTC)に作成
東/北東の風 2kt
気温 31°C
湿度 46%
気圧 1008 hPa
視程10km以上
1,500メートル以下は雲なし、積乱雲なし

METAR: OMRK 261800Z 07002KT CAVOK 31/18 Q1008 A2978

時間: 22:41 (18:41 UTC)

予報

当レポートは1時間36分前の17:05(UTC)に作成
予報は26日の 18時(UTC)から 28日の 00時(UTC)まで有効
変向風 2kt
視程10km以上
1,500メートル以下は雲なし、積乱雲なし
27日の 07時(UTC)から 27日の 09時(UTC)まで徐々に
北西の風 13kt
27日の 15時(UTC)から 27日の 17時(UTC)まで徐々に
変向風 2kt

TAF: OMRK 261705Z 2618/2800 VRB02KT CAVOK BECMG 2707/2709 31013KT BECMG 2715/2717 VRB02KT

4,000以上の空港の気象観測と天気予報(METAR報とTAF報)

利用可能な観測所は地図上に黄色い丸と赤い丸で示す。

丸の上にカーソルを重ねると観測所名を参照できる。

次にクリックすると気象観測と天気予報を参照できる。

マップの切り替え:黒色「×」印の緑ボタンをクリックして拡大、「-」印の緑ボタンをクリックして縮小、緑色の三角印をクリックして隣りの地図に切り替え


METAR-TAF: